»·PEaware :: N7436R KBUR-KSAN

N7436R :: KBUR-KSAN

FLIGHT INFORMATION

Flight Status: Arrived
Operator: Privately registered:
United States
More flights under this callsign
Pilot: Gopalakrishna Pillai Sulekha S. (22834)
Aircraft: BEECH AIRCRAFT SUPER KING AIR COMMUTER
(BE20)
More flights by this aircraft type
Origin: KBUR Bob Hope-Burbank
United States
Destination: KSAN San Diego Intl-Lindbergh
United States
More flights between these airports :: More routes between these airports
Route: +
File this flight plan on PilotEdge
Remarks:
Altitude:
(Current/Filed)
10,000ft
Speed:
(Current/Filed)
200kts
Departed: 11-Jan-20 09:27 PM
Arrived: 11-Jan-20 10:10 PM
Distance/Time
Traveled:
106nm/0:43
Distance/Time
To Go:
Arrived

Flight Plot

Page will automatically refresh every two minutes.

Flight plan parsing failed; only flown route is shown


Map Options




Map Legend


Flown Route
Filed Route
Departure Airport
Arrival Airport
Navaid (VOR, NDB)
Fix

Horizontal Profiles

Position Reports

Time Latitude Longitude Heading Altitude Ground
Speed
11-Jan-20 21:17 34.196108 -118.360132 179 781ft 0kts
11-Jan-20 21:18 34.196108 -118.360132 179 781ft 0kts
11-Jan-20 21:19 34.196108 -118.360132 179 781ft 0kts
11-Jan-20 21:20 34.196448 -118.360001 342 781ft 18kts
11-Jan-20 21:21 34.199400 -118.358024 346 781ft 21kts
11-Jan-20 21:22 34.208018 -118.360403 347 781ft 30kts
11-Jan-20 21:23 34.211514 -118.361185 38 781ft 0kts
11-Jan-20 21:24 34.211514 -118.361185 38 781ft 0kts
11-Jan-20 21:25 34.211831 -118.360745 73 781ft 11kts
11-Jan-20 21:26 34.183738 -118.357030 207 1329ft 165kts
11-Jan-20 21:27 34.155392 -118.386138 235 2658ft 94kts
11-Jan-20 21:28 34.136475 -118.382885 168 4979ft 116kts
11-Jan-20 21:29 34.096595 -118.427958 216 5583ft 250kts
11-Jan-20 21:30 34.043290 -118.472395 207 5563ft 200kts
11-Jan-20 21:31 33.994123 -118.461979 152 5576ft 176kts
11-Jan-20 21:32 33.949921 -118.436064 147 5577ft 169kts
11-Jan-20 21:33 33.912534 -118.403546 149 5587ft 166kts
11-Jan-20 21:34 33.878784 -118.367384 135 5593ft 176kts
11-Jan-20 21:35 33.839320 -118.323593 136 5579ft 194kts
11-Jan-20 21:36 33.797273 -118.277668 136 5045ft 217kts
11-Jan-20 21:37 33.749137 -118.225417 136 3576ft 230kts
11-Jan-20 21:38 33.703566 -118.180348 139 3523ft 202kts
11-Jan-20 21:39 33.662706 -118.138727 137 3517ft 195kts
11-Jan-20 21:40 33.623477 -118.095165 132 3516ft 192kts
11-Jan-20 21:41 33.587698 -118.048332 138 3518ft 192kts
11-Jan-20 21:42 33.546272 -118.007757 138 3525ft 192kts
11-Jan-20 21:43 33.504701 -117.966856 138 3529ft 197kts
11-Jan-20 21:44 33.460949 -117.923456 138 3526ft 207kts
11-Jan-20 21:45 33.416523 -117.879099 138 3526ft 209kts
11-Jan-20 21:46 33.372047 -117.833978 129 3516ft 209kts
11-Jan-20 21:47 33.344887 -117.772534 114 3534ft 212kts
11-Jan-20 21:48 33.318457 -117.709225 114 3535ft 214kts
11-Jan-20 21:49 33.291820 -117.644947 114 3535ft 215kts
11-Jan-20 21:50 33.265365 -117.580974 114 3535ft 215kts
11-Jan-20 21:51 33.235452 -117.518974 129 3499ft 217kts
11-Jan-20 21:52 33.195681 -117.464423 129 3498ft 217kts
11-Jan-20 21:53 33.150786 -117.420473 149 3485ft 200kts
11-Jan-20 21:54 33.103486 -117.389507 149 3488ft 189kts
11-Jan-20 21:55 33.057387 -117.359237 149 3489ft 187kts
11-Jan-20 21:56 33.012045 -117.329286 149 3490ft 186kts
11-Jan-20 21:57 32.966526 -117.299035 149 3490ft 186kts
11-Jan-20 21:58 32.918356 -117.276345 161 3508ft 187kts
11-Jan-20 21:59 32.868793 -117.257336 158 3506ft 187kts
11-Jan-20 22:00 32.822538 -117.229054 148 3116ft 188kts
11-Jan-20 22:01 32.778817 -117.198604 147 1095ft 172kts
11-Jan-20 22:02 32.746486 -117.173435 103 788ft 109kts
11-Jan-20 22:03 32.731549 -117.157998 215 909ft 103kts
11-Jan-20 22:04 32.733042 -117.188103 290 347ft 83kts
11-Jan-20 22:05 32.738478 -117.210887 281 2164ft 79kts
11-Jan-20 22:06 32.760593 -117.204235 103 1090ft 183kts
11-Jan-20 22:07 32.734151 -117.152108 119 1206ft 197kts
11-Jan-20 22:08 32.732368 -117.184525 291 15ft 100kts
11-Jan-20 22:09 32.734478 -117.190868 28 17ft 0kts
11-Jan-20 22:10 32.734492 -117.187859 56 17ft 22kts

Navigation Log

Ident Type
Flight plan parsing failed, navigation log unavailable